createdAt,value
2019-01-03T00:00:30.275Z,3.27
2019-01-03T00:03:18.074Z,4.10
2019-01-03T00:06:14.694Z,6.30
2019-01-03T00:09:09.934Z,4.50
2019-01-03T00:12:02.781Z,2.53
2019-01-03T00:14:50.503Z,2.83
2019-01-03T00:17:38.637Z,8.53
2019-01-03T00:20:26.042Z,2.77
2019-01-03T00:23:18.255Z,3.87
2019-01-03T00:26:08.721Z,3.13
2019-01-03T00:29:02.893Z,3.20
2019-01-03T00:31:51.088Z,3.93
2019-01-03T00:34:40.880Z,2.77
2019-01-03T00:37:39.138Z,6.30
2019-01-03T00:40:26.779Z,3.37
2019-01-03T00:43:30.983Z,3.97
2019-01-03T00:46:32.918Z,5.70
2019-01-03T00:49:26.313Z,2.90
2019-01-03T00:52:35.459Z,3.87
2019-01-03T00:55:27.238Z,4.30
2019-01-03T00:58:22.004Z,3.50
2019-01-03T01:01:15.058Z,4.87
2019-01-03T01:04:08.696Z,2.60
2019-01-03T01:07:08.981Z,4.00
2019-01-03T01:09:57.026Z,3.30
2019-01-03T01:12:45.847Z,4.53
2019-01-03T01:15:38.841Z,4.00
2019-01-03T01:18:30.245Z,3.87
2019-01-03T01:24:15.039Z,6.83
2019-01-03T01:27:03.072Z,6.23
2019-01-03T01:29:51.016Z,4.10
2019-01-03T01:32:58.268Z,3.30
2019-01-03T01:35:39.279Z,3.20
2019-01-03T01:38:27.111Z,7.10
2019-01-03T01:41:22.146Z,3.50
2019-01-03T01:44:11.335Z,6.60
2019-01-03T01:47:00.930Z,2.60
2019-01-03T01:49:46.885Z,5.63
2019-01-03T01:52:46.039Z,5.87
2019-01-03T01:55:50.749Z,8.13
2019-01-03T01:58:38.596Z,3.60
2019-01-03T02:01:35.262Z,3.30
2019-01-03T02:04:30.209Z,3.37
2019-01-03T02:07:20.212Z,9.53
2019-01-03T02:10:09.622Z,3.53
2019-01-03T02:12:57.219Z,5.73
2019-01-03T02:15:41.776Z,2.80
2019-01-03T02:18:29.314Z,3.83
2019-01-03T02:21:20.471Z,2.30
2019-01-03T02:24:15.667Z,6.03
2019-01-03T02:27:05.432Z,7.37
2019-01-03T02:30:05.134Z,8.17
2019-01-03T02:33:03.864Z,2.77
2019-01-03T02:35:55.953Z,7.67
2019-01-03T02:39:02.055Z,5.53
2019-01-03T02:41:49.927Z,5.97
2019-01-03T02:44:42.134Z,7.27
2019-01-03T02:47:30.427Z,9.17
2019-01-03T02:50:26.857Z,4.70
2019-01-03T02:53:22.987Z,6.83
2019-01-03T02:56:25.906Z,4.03
2019-01-03T02:59:12.560Z,3.07
2019-01-03T03:02:14.268Z,4.30
2019-01-03T03:05:18.758Z,3.40
2019-01-03T03:08:07.826Z,4.83
2019-01-03T03:10:57.347Z,3.63
2019-01-03T03:14:00.462Z,2.70
2019-01-03T03:16:53.554Z,3.10
2019-01-03T03:19:39.473Z,2.70
2019-01-03T03:22:29.329Z,6.20
2019-01-03T03:25:30.301Z,6.13
2019-01-03T03:28:21.707Z,6.73
2019-01-03T03:31:26.966Z,2.27
2019-01-03T03:34:25.382Z,5.37
2019-01-03T03:37:17.383Z,5.23
2019-01-03T03:40:21.847Z,5.50
2019-01-03T03:43:09.332Z,3.50
2019-01-03T03:46:01.321Z,3.97
2019-01-03T03:49:08.407Z,5.37
2019-01-03T03:51:56.335Z,3.93
2019-01-03T03:57:44.546Z,4.30
2019-01-03T04:00:52.330Z,6.00
2019-01-03T04:03:56.675Z,6.17
2019-01-03T04:07:03.714Z,6.83
2019-01-03T04:09:52.779Z,4.60
2019-01-03T04:12:40.128Z,3.60
2019-01-03T04:15:41.690Z,2.73
2019-01-03T04:18:33.815Z,3.67
2019-01-03T04:21:26.137Z,2.90
2019-01-03T04:24:13.936Z,3.10
2019-01-03T04:27:01.488Z,4.83
2019-01-03T04:30:00.128Z,2.63
2019-01-03T04:32:58.931Z,2.93
2019-01-03T04:35:46.536Z,2.90
2019-01-03T04:38:34.143Z,2.57
2019-01-03T04:41:41.331Z,4.00
2019-01-03T04:44:24.905Z,4.10
2019-01-03T04:47:12.454Z,2.70
2019-01-03T04:50:00.602Z,2.33
2019-01-03T04:53:05.359Z,4.30
2019-01-03T04:55:53.771Z,3.27
2019-01-03T04:58:41.344Z,2.50
2019-01-03T05:02:19.624Z,3.37
2019-01-03T05:05:08.923Z,2.37
2019-01-03T05:08:04.613Z,2.67
2019-01-03T05:10:52.338Z,4.77
2019-01-03T05:13:51.786Z,6.30
2019-01-03T05:16:39.712Z,4.33
2019-01-03T05:19:35.759Z,5.17
2019-01-03T05:22:23.228Z,2.60
2019-01-03T05:25:12.585Z,2.90
2019-01-03T05:28:16.773Z,3.30
2019-01-03T05:31:05.760Z,4.50
2019-01-03T05:33:54.937Z,4.03
2019-01-03T05:36:50.233Z,2.80
2019-01-03T05:39:36.158Z,10.40
2019-01-03T05:42:34.549Z,3.13
2019-01-03T05:45:39.651Z,2.97
2019-01-03T05:48:38.673Z,8.90
2019-01-03T05:51:35.432Z,6.93
2019-01-03T05:54:24.696Z,7.23
2019-01-03T05:57:08.807Z,2.83
2019-01-03T06:00:07.546Z,3.43
2019-01-03T06:02:59.654Z,4.40
2019-01-03T06:05:45.034Z,3.23
2019-01-03T06:08:33.252Z,4.63
2019-01-03T06:11:25.821Z,8.43
2019-01-03T06:14:29.919Z,4.70
2019-01-03T06:17:31.404Z,5.33
2019-01-03T06:20:23.434Z,5.60
2019-01-03T06:23:14.241Z,4.10
2019-01-03T06:26:02.973Z,3.33
2019-01-03T06:29:35.891Z,5.97
2019-01-03T06:32:39.974Z,5.50
2019-01-03T06:35:27.928Z,2.70
2019-01-03T06:38:13.750Z,8.47
2019-01-03T06:41:00.080Z,7.10
2019-01-03T06:43:58.071Z,3.50
2019-01-03T06:46:53.611Z,4.67
2019-01-03T06:49:45.606Z,6.00
2019-01-03T06:52:33.479Z,8.53
2019-01-03T06:55:36.966Z,7.73
2019-01-03T06:58:38.176Z,5.63
2019-01-03T07:01:26.328Z,3.10
2019-01-03T07:04:15.798Z,3.40
2019-01-03T07:07:04.997Z,3.67
2019-01-03T07:09:52.790Z,3.93
2019-01-03T07:12:40.228Z,3.50
2019-01-03T07:15:30.205Z,7.83
2019-01-03T07:18:34.346Z,3.30
2019-01-03T07:21:27.419Z,6.97
2019-01-03T07:24:15.759Z,3.70
2019-01-03T07:27:07.906Z,4.70
2019-01-03T07:29:55.411Z,7.60
2019-01-03T07:32:59.730Z,3.23
2019-01-03T07:35:47.294Z,3.60
2019-01-03T07:38:42.398Z,3.23
2019-01-03T07:41:31.521Z,4.40
2019-01-03T07:44:23.642Z,4.93
2019-01-03T07:47:29.143Z,4.83
2019-01-03T07:50:14.658Z,6.33
2019-01-03T07:53:02.219Z,3.37
2019-01-03T07:55:51.262Z,3.77
2019-01-03T07:58:43.199Z,3.10
2019-01-03T08:01:32.674Z,7.43
2019-01-03T08:04:22.411Z,5.00
2019-01-03T08:07:20.346Z,3.80
2019-01-03T08:10:07.907Z,4.17
2019-01-03T08:12:59.901Z,6.03
2019-01-03T08:15:47.789Z,3.10
2019-01-03T08:18:35.538Z,7.60
2019-01-03T08:21:28.281Z,4.63
2019-01-03T08:24:26.616Z,3.97
2019-01-03T08:27:07.221Z,5.30
2019-01-03T08:29:54.808Z,4.73
2019-01-03T08:32:47.757Z,3.43
2019-01-03T08:35:31.321Z,3.03
2019-01-03T08:38:27.725Z,5.07
2019-01-03T08:41:15.304Z,7.00
2019-01-03T08:44:16.561Z,3.77
2019-01-03T08:47:21.955Z,3.20
2019-01-03T08:50:09.415Z,5.40
2019-01-03T08:52:56.918Z,6.00
2019-01-03T08:55:45.223Z,2.27
2019-01-03T08:58:46.861Z,2.80
2019-01-03T09:01:39.704Z,4.20
2019-01-03T09:04:31.658Z,2.80
2019-01-03T09:07:19.232Z,3.50
2019-01-03T09:10:18.263Z,5.13
2019-01-03T09:13:15.022Z,7.53
2019-01-03T09:16:07.883Z,4.43
2019-01-03T09:19:03.286Z,5.03
2019-01-03T09:21:45.196Z,3.20
2019-01-03T09:24:37.357Z,3.43
2019-01-03T09:27:29.446Z,5.07
2019-01-03T09:30:24.378Z,3.10
2019-01-03T09:33:11.979Z,2.30
2019-01-03T09:35:59.826Z,4.20
2019-01-03T09:38:47.903Z,3.63
2019-01-03T09:41:48.960Z,3.70
2019-01-03T09:44:43.659Z,3.20
2019-01-03T09:47:14.249Z,4.53
2019-01-03T09:49:44.765Z,3.87
2019-01-03T09:52:15.093Z,3.50
2019-01-03T09:54:45.484Z,2.30
2019-01-03T09:57:15.844Z,2.93
2019-01-03T09:59:46.227Z,5.60
2019-01-03T10:02:16.525Z,2.60
2019-01-03T10:04:47.414Z,4.77
2019-01-03T10:07:17.785Z,11.53
2019-01-03T10:09:48.187Z,6.37
2019-01-03T10:12:18.544Z,3.40
2019-01-03T10:14:48.906Z,5.47
2019-01-03T10:17:19.300Z,4.10
2019-01-03T10:19:52.997Z,5.60
2019-01-03T10:22:23.307Z,5.83
2019-01-03T10:24:53.695Z,2.93
2019-01-03T10:27:24.157Z,2.83
2019-01-03T10:29:54.462Z,7.07
2019-01-03T10:32:25.165Z,3.07
2019-01-03T10:34:55.469Z,2.57
2019-01-03T10:37:25.825Z,4.80
2019-01-03T10:39:56.115Z,4.00
2019-01-03T10:42:26.951Z,2.23
2019-01-03T10:44:57.588Z,5.63
2019-01-03T10:47:27.992Z,2.57
2019-01-03T10:49:58.295Z,2.73
2019-01-03T10:52:28.695Z,2.77
2019-01-03T10:54:58.984Z,3.73
2019-01-03T10:57:29.753Z,3.13
2019-01-03T11:00:00.734Z,3.00
2019-01-03T11:02:31.188Z,4.53
2019-01-03T11:05:01.711Z,3.93
2019-01-03T11:07:40.481Z,3.03
2019-01-03T11:10:17.862Z,3.10
2019-01-03T11:12:50.454Z,3.53
2019-01-03T11:15:32.010Z,4.47
2019-01-03T11:18:05.722Z,3.93
2019-01-03T11:20:39.190Z,5.20
2019-01-03T11:23:13.544Z,3.17
2019-01-03T11:25:50.675Z,3.43
2019-01-03T11:28:29.971Z,4.07
2019-01-03T11:31:02.094Z,6.20
2019-01-03T11:33:38.134Z,3.80
2019-01-03T11:36:37.715Z,8.03
2019-01-03T11:39:11.985Z,3.03
2019-01-03T11:41:43.516Z,2.53
2019-01-03T11:44:21.205Z,4.10
2019-01-03T11:46:56.188Z,2.93
2019-01-03T11:49:29.577Z,2.90
2019-01-03T11:52:02.024Z,5.57
2019-01-03T11:54:41.564Z,6.00
2019-01-03T11:57:15.420Z,2.80
2019-01-03T11:59:50.991Z,13.47
2019-01-03T12:02:27.127Z,7.20
2019-01-03T12:05:06.873Z,2.90
2019-01-03T12:07:43.846Z,2.87
2019-01-03T12:10:18.591Z,4.00
2019-01-03T12:12:52.536Z,3.00
2019-01-03T12:15:28.982Z,5.13
2019-01-03T12:18:02.049Z,4.37
2019-01-03T12:20:38.280Z,5.83
2019-01-03T12:23:13.728Z,4.10
2019-01-03T12:25:46.998Z,3.40
2019-01-03T12:28:21.655Z,4.33
2019-01-03T12:30:54.584Z,5.47
2019-01-03T12:33:30.044Z,7.83
2019-01-03T12:36:02.169Z,3.97
2019-01-03T12:38:32.642Z,8.07
2019-01-03T12:41:02.948Z,7.03
2019-01-03T12:43:33.401Z,3.93
2019-01-03T12:46:03.804Z,5.80
2019-01-03T12:48:34.151Z,7.33
2019-01-03T12:51:04.557Z,6.33
2019-01-03T12:53:34.838Z,3.73
2019-01-03T12:56:05.373Z,7.23
2019-01-03T12:58:35.761Z,5.97
2019-01-03T13:01:06.866Z,3.17
2019-01-03T13:03:37.204Z,3.47
2019-01-03T13:06:07.575Z,8.27
2019-01-03T13:08:37.846Z,9.30
2019-01-03T13:11:08.397Z,8.80
2019-01-03T13:13:39.054Z,3.63
2019-01-03T13:16:09.630Z,8.07
2019-01-03T13:18:40.176Z,10.80
2019-01-03T13:21:10.597Z,8.77
2019-01-03T13:23:41.001Z,5.80
2019-01-03T13:26:11.319Z,4.97
2019-01-03T13:28:41.726Z,10.07
2019-01-03T13:31:12.068Z,5.37
2019-01-03T13:33:42.441Z,13.07
2019-01-03T13:36:12.770Z,10.23
2019-01-03T13:38:43.203Z,8.00
2019-01-03T13:41:13.515Z,4.73
2019-01-03T13:43:46.765Z,8.20
2019-01-03T13:46:17.097Z,3.97
2019-01-03T13:48:47.514Z,9.70
2019-01-03T13:51:18.389Z,11.77
2019-01-03T13:53:48.920Z,6.97
2019-01-03T13:56:19.331Z,10.47
2019-01-03T13:58:49.741Z,9.43
2019-01-03T14:01:20.033Z,5.83
2019-01-03T14:03:50.387Z,9.83
2019-01-03T14:06:21.170Z,4.63
2019-01-03T14:08:51.526Z,5.40
2019-01-03T14:11:24.944Z,5.37
2019-01-03T14:13:55.346Z,8.93
2019-01-03T14:16:25.707Z,12.47
2019-01-03T14:18:56.018Z,8.47
2019-01-03T14:21:26.476Z,9.37
2019-01-03T14:23:56.768Z,9.80
2019-01-03T14:26:27.129Z,8.30
2019-01-03T14:28:57.474Z,17.13
2019-01-03T14:31:27.859Z,14.30
2019-01-03T14:33:58.177Z,10.67
2019-01-03T14:36:28.841Z,8.67
2019-01-03T14:38:59.735Z,8.07
2019-01-03T14:41:30.088Z,7.33
2019-01-03T14:44:00.411Z,12.17
2019-01-03T14:46:31.340Z,18.47
2019-01-03T14:49:01.661Z,14.43
2019-01-03T14:51:32.353Z,9.53
2019-01-03T14:54:02.759Z,7.07
2019-01-03T14:56:33.557Z,24.27
2019-01-03T14:59:03.970Z,8.73
2019-01-03T15:01:34.398Z,15.20
2019-01-03T15:04:05.787Z,14.27
2019-01-03T15:06:36.576Z,14.57
2019-01-03T15:09:08.359Z,8.03
2019-01-03T15:11:38.662Z,14.73
2019-01-03T15:14:09.098Z,6.63
2019-01-03T15:16:39.463Z,16.47
2019-01-03T15:19:10.001Z,9.23
2019-01-03T15:21:40.360Z,10.63
2019-01-03T15:24:10.741Z,16.90
2019-01-03T15:27:13.434Z,13.47
2019-01-03T15:29:45.376Z,17.53
2019-01-03T15:32:15.691Z,17.77
2019-01-03T15:34:46.167Z,7.17
2019-01-03T15:37:16.490Z,10.27
2019-01-03T15:39:46.913Z,16.47
2019-01-03T15:42:17.327Z,6.00
2019-01-03T15:44:47.984Z,13.90
2019-01-03T15:47:18.396Z,11.00
2019-01-03T15:49:48.721Z,12.57
2019-01-03T15:52:19.110Z,18.43
2019-01-03T15:54:49.970Z,15.83
2019-01-03T15:57:20.665Z,14.67
2019-01-03T15:59:51.128Z,21.20
2019-01-03T16:02:31.250Z,20.83
2019-01-03T16:05:12.286Z,16.43
2019-01-03T16:07:42.981Z,8.30
2019-01-03T16:10:13.326Z,15.33
2019-01-03T16:12:44.147Z,18.53
2019-01-03T16:15:14.922Z,16.13
2019-01-03T16:17:45.233Z,11.43
2019-01-03T16:20:15.632Z,20.77
2019-01-03T16:22:46.019Z,14.27
2019-01-03T16:25:16.534Z,16.53
2019-01-03T16:27:48.028Z,18.13
2019-01-03T16:30:18.738Z,14.63
2019-01-03T16:32:49.632Z,20.47
2019-01-03T16:35:20.517Z,15.37
2019-01-03T16:37:50.887Z,8.60
2019-01-03T16:40:21.190Z,15.27
2019-01-03T16:42:51.568Z,20.80
2019-01-03T16:45:22.463Z,18.97
2019-01-03T16:47:53.292Z,15.07
2019-01-03T16:50:23.680Z,22.20
2019-01-03T16:52:54.581Z,20.57
2019-01-03T16:55:24.979Z,25.87
2019-01-03T16:57:55.262Z,16.30
2019-01-03T17:00:25.701Z,15.53
2019-01-03T17:02:56.006Z,18.67
2019-01-03T17:05:26.392Z,27.37
2019-01-03T17:07:56.692Z,18.03
2019-01-03T17:10:27.601Z,23.80
2019-01-03T17:12:57.995Z,17.07
2019-01-03T17:15:28.325Z,11.07
2019-01-03T17:17:59.908Z,23.73
2019-01-03T17:20:30.223Z,14.33
2019-01-03T17:23:00.660Z,11.63
2019-01-03T17:25:31.569Z,19.97
2019-01-03T17:28:01.948Z,22.93
2019-01-03T17:30:32.247Z,25.60
2019-01-03T17:33:02.648Z,27.33
2019-01-03T17:35:34.861Z,17.93
2019-01-03T17:38:05.641Z,16.00
2019-01-03T17:40:36.192Z,9.00
2019-01-03T17:43:06.558Z,22.53
2019-01-03T17:45:36.995Z,27.60
2019-01-03T17:48:07.284Z,21.17
2019-01-03T17:50:37.712Z,23.57
2019-01-03T17:53:08.780Z,20.57
2019-01-03T17:55:39.073Z,27.00
2019-01-03T17:58:09.452Z,24.93
2019-01-03T18:00:47.629Z,19.07
2019-01-03T18:03:17.957Z,22.13
2019-01-03T18:05:49.272Z,21.80
2019-01-03T18:08:19.649Z,30.33
2019-01-03T18:10:49.929Z,21.63
2019-01-03T18:13:20.293Z,29.43
2019-01-03T18:15:50.653Z,17.57
2019-01-03T18:18:21.156Z,21.67
2019-01-03T18:20:51.798Z,20.17
2019-01-03T18:23:22.159Z,17.73
2019-01-03T18:25:52.482Z,20.37
2019-01-03T18:28:22.896Z,19.10
2019-01-03T18:30:53.290Z,10.00
2019-01-03T18:33:23.618Z,18.67
2019-01-03T18:35:53.988Z,13.00
2019-01-03T18:38:24.365Z,15.83
2019-01-03T18:40:54.763Z,16.80
2019-01-03T18:43:25.247Z,15.70
2019-01-03T18:45:55.649Z,26.13
2019-01-03T18:48:26.033Z,21.67
2019-01-03T18:50:56.310Z,12.83
2019-01-03T18:53:28.562Z,18.00
2019-01-03T18:55:58.895Z,16.23
2019-01-03T18:58:29.254Z,11.90
2019-01-03T19:00:59.547Z,19.03
2019-01-03T19:03:30.516Z,22.37
2019-01-03T19:06:02.792Z,17.80
2019-01-03T19:08:33.205Z,15.93
2019-01-03T19:11:03.729Z,16.07
2019-01-03T19:13:34.150Z,12.67
2019-01-03T19:16:05.164Z,14.40
2019-01-03T19:18:35.465Z,11.63
2019-01-03T19:21:05.865Z,14.97
2019-01-03T19:23:36.231Z,16.53
2019-01-03T19:26:07.067Z,23.47
2019-01-03T19:28:37.716Z,21.40
2019-01-03T19:31:08.868Z,20.47
2019-01-03T19:33:39.411Z,18.97
2019-01-03T19:36:11.314Z,23.23
2019-01-03T19:38:41.726Z,15.43
2019-01-03T19:41:12.094Z,14.30
2019-01-03T19:43:43.344Z,26.37
2019-01-03T19:46:13.821Z,11.70
2019-01-03T19:48:48.920Z,18.23
2019-01-03T19:51:19.289Z,17.03
2019-01-03T19:53:49.575Z,10.17
2019-01-03T19:56:20.416Z,12.17
2019-01-03T19:58:51.281Z,11.53
2019-01-03T20:01:21.699Z,14.40
2019-01-03T20:03:52.024Z,21.13
2019-01-03T20:06:22.438Z,12.67
2019-01-03T20:08:53.335Z,16.57
2019-01-03T20:11:23.715Z,15.63
2019-01-03T20:13:54.039Z,16.87
2019-01-03T20:16:24.420Z,17.77
2019-01-03T20:18:54.753Z,15.23
2019-01-03T20:21:25.651Z,13.83
2019-01-03T20:23:56.037Z,24.23
2019-01-03T20:26:26.384Z,18.23
2019-01-03T20:28:56.747Z,12.43
2019-01-03T20:31:27.119Z,24.80
2019-01-03T20:34:25.373Z,17.33
2019-01-03T20:36:55.787Z,14.13
2019-01-03T20:39:26.198Z,24.23
2019-01-03T20:41:56.639Z,13.33
2019-01-03T20:44:26.941Z,11.77
2019-01-03T20:46:57.267Z,17.63
2019-01-03T20:49:27.626Z,29.70
2019-01-03T20:51:57.931Z,18.57
2019-01-03T20:54:28.374Z,14.03
2019-01-03T20:56:58.749Z,24.83
2019-01-03T20:59:29.555Z,27.20
2019-01-03T21:01:59.947Z,23.37
2019-01-03T21:04:30.230Z,11.33
2019-01-03T21:07:00.590Z,18.37
2019-01-03T21:09:30.898Z,22.53
2019-01-03T21:12:01.316Z,20.63
2019-01-03T21:14:31.720Z,9.80
2019-01-03T21:17:02.345Z,8.37
2019-01-03T21:19:34.549Z,22.10
2019-01-03T21:22:04.836Z,20.97
2019-01-03T21:24:36.306Z,17.57
2019-01-03T21:27:06.791Z,14.43
2019-01-03T21:29:37.221Z,19.97
2019-01-03T21:32:07.547Z,21.33
2019-01-03T21:34:37.909Z,6.93
2019-01-03T21:37:08.899Z,14.10
2019-01-03T21:39:39.271Z,13.20
2019-01-03T21:42:09.689Z,8.07
2019-01-03T21:44:40.289Z,15.77
2019-01-03T21:47:11.750Z,11.17
2019-01-03T21:49:42.224Z,13.13
2019-01-03T21:52:12.608Z,17.57
2019-01-03T21:54:42.965Z,15.07
2019-01-03T21:57:13.778Z,12.10
2019-01-03T21:59:44.140Z,19.50
2019-01-03T22:02:16.841Z,12.93
2019-01-03T22:04:47.198Z,21.23
2019-01-03T22:07:18.055Z,16.10
2019-01-03T22:09:48.380Z,17.70
2019-01-03T22:12:18.753Z,11.03
2019-01-03T22:14:49.530Z,17.67
2019-01-03T22:17:19.956Z,14.07
2019-01-03T22:19:51.468Z,16.50
2019-01-03T22:22:24.549Z,22.53
2019-01-03T22:24:54.949Z,17.00
2019-01-03T22:27:26.352Z,15.77
2019-01-03T22:29:56.803Z,21.60
2019-01-03T22:32:28.055Z,15.17
2019-01-03T22:34:58.523Z,15.20
2019-01-03T22:37:28.902Z,23.83
2019-01-03T22:39:59.296Z,24.30
2019-01-03T22:42:30.380Z,21.57
2019-01-03T22:45:00.670Z,24.67
2019-01-03T22:47:31.801Z,29.20
2019-01-03T22:50:02.129Z,20.93
2019-01-03T22:52:32.479Z,20.67
2019-01-03T22:55:02.809Z,30.07
2019-01-03T22:57:33.173Z,29.60
2019-01-03T23:00:04.559Z,30.47
2019-01-03T23:02:34.972Z,19.37
2019-01-03T23:05:06.035Z,19.53
2019-01-03T23:08:06.857Z,23.67
2019-01-03T23:10:37.490Z,27.00
2019-01-03T23:13:07.933Z,23.00
2019-01-03T23:15:38.254Z,23.37
2019-01-03T23:18:08.709Z,25.23
2019-01-03T23:20:39.062Z,20.07
2019-01-03T23:23:11.309Z,30.03
2019-01-03T23:25:42.349Z,25.40
2019-01-03T23:28:12.727Z,23.20
2019-01-03T23:30:43.136Z,26.87
2019-01-03T23:33:13.502Z,25.87
2019-01-03T23:35:45.657Z,28.83
2019-01-03T23:38:16.051Z,11.53
2019-01-03T23:40:49.005Z,32.63
2019-01-03T23:43:19.576Z,17.67
2019-01-03T23:45:50.386Z,32.57
2019-01-03T23:48:20.677Z,30.60
2019-01-03T23:50:51.045Z,28.10
2019-01-03T23:53:21.554Z,26.70
2019-01-03T23:55:56.171Z,21.77
2019-01-03T23:58:26.510Z,27.37
